Terminal Aerodrome Forecast
Issued by NWS

Home | Current Version | Previous Version | Text Only | Print | Product List | Glossary On
Versions: 1 2 3 4 5 6 7 8 9 10 11 12 13
000
FTAK31 PAJN 220500
TAFAYA
TAF
PAYA 220537Z 2206/2306 VRB04KT P6SM -RA SCT025 OVC035
     FM221000 VRB06KT 5SM -SHRA BR BKN020 OVC050
     FM221800 08005KT 4SM -RASN BR SCT020 OVC050
      AMD LTD TO CLD VIS AND WIND 2206/2210=

USA.gov is the U.S. government's official web portal to all federal, state and local government web resources and services.